Pertusola — IBER — position and weather

sailwx.info

Track history (hours):
 
Tides and Currents Weather Stations Pressure Air Temp Water Temp Dewpoint Dewpoint Depression Visibility Wind Speed Wind Dir Waves Ship Positions

Pertusola

Last reported at 2014-Oct-01 19:33 UTC. Time now 2014-Oct-02 06:33 UTC.
Position N 45°11' W 003°37'.

Length 145 m; draft 6.5 m.

Type: Ship (hazmat cat A). MMSI: 247399000.

Date/timePositionNaut miles runAvg speedWind from/ knotsBaromVisibWave heightAir tempDewpointWater temp
2014-Oct-01 19:33N 45°11' W 003°37'4013.3
2014-Oct-01 16:34N 45°21' W 002°42'1513.2
2014-Oct-01 15:25N 45°25' W 002°22'1213.4
2014-Oct-01 14:30N 45°28' W 002°05'1313.4
2014-Oct-01 13:33N 45°31' W 001°47'1413.7
2014-Oct-01 12:31N 45°35' W 001°28'3712.5
2014-Oct-01 09:33N 45°14' W 000°44'1111.4
2014-Oct-01 08:33N 45°03' W 000°38'5 3.4
2014-Oct-01 07:05N 44°60' W 000°33'0 0.0
2014-Oct-01 06:32N 44°60' W 000°33'0 0.0
2014-Oct-01 05:29N 44°60' W 000°33'0 0.0
2014-Oct-01 04:32N 44°60' W 000°33'0 0.0
2014-Sep-30 19:32N 44°60' W 000°33'41 2.8
2014-Sep-30 05:14N 45°35' W 001°03'15 5.5
2014-Sep-30 02:32N 45°34' W 001°24'0 0.0
2014-Sep-29 23:14N 45°34' W 001°24'  
2014-Sep-27 17:28N 38°18' W 009°48'1415.1
2014-Sep-27 16:33N 38°04' W 009°44'1614.9
2014-Sep-27 15:27N 37°48' W 009°39'7913.5
2014-Sep-27 09:34N 36°38' W 008°54'1614.6
2014-Sep-27 08:29N 36°33' W 008°35'  
2014-Sep-22 23:14N 36°05' W 005°19'6 0.4
2014-Sep-22 08:33N 35°59' W 005°23'  
Track history (hours):
 
Tides and Currents Weather Stations Pressure Air Temp Water Temp Dewpoint Dewpoint Depression Visibility Wind Speed Wind Dir Waves Ship Positions

Pertusola

Last reported at 2014-Oct-01 19:33 UTC. Time now 2014-Oct-02 06:33 UTC.
Position N 45°11' W 003°37'.

Length 145 m; draft 6.5 m.

Type: Ship (hazmat cat A). MMSI: 247399000.

Date/timePositionNaut miles runAvg speedWind from/ knotsBaromVisibWave heightAir tempDewpointWater temp
2014-Oct-01 19:33N 45°11' W 003°37'4013.3
2014-Oct-01 16:34N 45°21' W 002°42'1513.2
2014-Oct-01 15:25N 45°25' W 002°22'1213.4
2014-Oct-01 14:30N 45°28' W 002°05'1313.4
2014-Oct-01 13:33N 45°31' W 001°47'1413.7
2014-Oct-01 12:31N 45°35' W 001°28'3712.5
2014-Oct-01 09:33N 45°14' W 000°44'1111.4
2014-Oct-01 08:33N 45°03' W 000°38'5 3.4
2014-Oct-01 07:05N 44°60' W 000°33'0 0.0
2014-Oct-01 06:32N 44°60' W 000°33'0 0.0
2014-Oct-01 05:29N 44°60' W 000°33'0 0.0
2014-Oct-01 04:32N 44°60' W 000°33'0 0.0
2014-Sep-30 19:32N 44°60' W 000°33'41 2.8
2014-Sep-30 05:14N 45°35' W 001°03'15 5.5
2014-Sep-30 02:32N 45°34' W 001°24'0 0.0
2014-Sep-29 23:14N 45°34' W 001°24'  
2014-Sep-27 17:28N 38°18' W 009°48'1415.1
2014-Sep-27 16:33N 38°04' W 009°44'1614.9
2014-Sep-27 15:27N 37°48' W 009°39'7913.5
2014-Sep-27 09:34N 36°38' W 008°54'1614.6
2014-Sep-27 08:29N 36°33' W 008°35'  
2014-Sep-22 23:14N 36°05' W 005°19'6 0.4
2014-Sep-22 08:33N 35°59' W 005°23'  

Dump ship's entire track history